createdAt,value
2019-03-31T00:01:54.262Z,52.62
2019-03-31T00:04:24.053Z,52.45
2019-03-31T00:06:55.287Z,52.13
2019-03-31T00:09:26.733Z,51.92
2019-03-31T00:11:58.009Z,52.18
2019-03-31T00:14:29.189Z,52.93
2019-03-31T00:17:00.335Z,53.80
2019-03-31T00:19:31.427Z,54.47
2019-03-31T00:22:02.695Z,55.07
2019-03-31T00:24:33.953Z,55.04
2019-03-31T00:27:05.143Z,55.20
2019-03-31T00:29:36.302Z,55.90
2019-03-31T00:32:07.557Z,55.96
2019-03-31T00:34:38.630Z,56.17
2019-03-31T00:37:09.732Z,56.42
2019-03-31T00:39:40.883Z,56.37
2019-03-31T00:42:11.972Z,56.73
2019-03-31T00:44:43.187Z,56.44
2019-03-31T00:47:14.405Z,56.34
2019-03-31T00:49:46.472Z,56.55
2019-03-31T00:52:18.291Z,56.45
2019-03-31T00:54:49.420Z,56.85
2019-03-31T00:57:20.659Z,56.94
2019-03-31T00:59:51.806Z,57.13
2019-03-31T01:02:26.435Z,57.24
2019-03-31T01:04:57.586Z,57.77
2019-03-31T01:07:29.276Z,57.68
2019-03-31T01:10:00.520Z,57.41
2019-03-31T01:12:32.634Z,57.27
2019-03-31T01:15:06.162Z,57.35
2019-03-31T01:17:37.484Z,57.05
2019-03-31T01:20:09.188Z,57.25
2019-03-31T01:22:40.369Z,57.37
2019-03-31T01:25:11.523Z,58.03
2019-03-31T01:27:43.002Z,58.27
2019-03-31T01:30:15.884Z,58.43
2019-03-31T01:32:47.924Z,59.05
2019-03-31T01:35:19.788Z,59.14
2019-03-31T01:37:50.904Z,60.12
2019-03-31T01:40:22.578Z,60.38
2019-03-31T01:42:53.594Z,59.65
2019-03-31T01:45:25.973Z,59.99
2019-03-31T01:47:57.118Z,59.90
2019-03-31T01:50:28.925Z,60.44
2019-03-31T01:52:59.930Z,60.80
2019-03-31T01:55:31.011Z,61.73
2019-03-31T01:58:02.102Z,62.80
2019-03-31T02:00:55.924Z,62.72
2019-03-31T02:03:27.090Z,62.94
2019-03-31T02:05:58.255Z,62.99
2019-03-31T02:08:29.615Z,62.90
2019-03-31T02:11:00.716Z,62.49
2019-03-31T02:13:31.876Z,61.81
2019-03-31T02:16:03.258Z,61.39
2019-03-31T02:18:34.401Z,61.23
2019-03-31T02:21:05.578Z,61.28
2019-03-31T02:23:36.706Z,62.29
2019-03-31T02:26:08.197Z,62.92
2019-03-31T02:28:39.375Z,63.44
2019-03-31T02:31:10.473Z,64.11
2019-03-31T02:33:41.929Z,64.53
2019-03-31T02:36:13.051Z,64.73
2019-03-31T02:38:44.122Z,65.28
2019-03-31T02:41:15.343Z,65.46
2019-03-31T02:43:46.336Z,65.80
2019-03-31T02:46:17.857Z,64.36
2019-03-31T02:48:49.114Z,65.21
2019-03-31T02:51:23.081Z,65.70
2019-03-31T02:53:54.580Z,65.65
2019-03-31T02:56:27.267Z,66.14
2019-03-31T02:59:00.064Z,66.59
2019-03-31T03:01:33.749Z,66.77
2019-03-31T03:04:07.855Z,67.34
2019-03-31T03:06:37.926Z,67.45
2019-03-31T03:09:09.074Z,67.91
2019-03-31T03:11:43.216Z,67.81
2019-03-31T03:14:16.001Z,67.75
2019-03-31T03:16:48.634Z,67.61
2019-03-31T03:19:20.010Z,67.91
2019-03-31T03:21:51.619Z,67.38
2019-03-31T03:24:22.841Z,67.21
2019-03-31T03:26:54.460Z,67.68
2019-03-31T03:29:25.616Z,67.75
2019-03-31T03:31:56.802Z,67.62
2019-03-31T03:34:27.868Z,67.25
2019-03-31T03:36:59.031Z,67.00
2019-03-31T03:39:30.094Z,66.04
2019-03-31T03:42:01.430Z,65.61
2019-03-31T03:44:32.572Z,65.95
2019-03-31T03:47:03.738Z,65.36
2019-03-31T03:49:34.901Z,65.20
2019-03-31T03:52:06.865Z,65.18
2019-03-31T03:54:38.270Z,65.48
2019-03-31T03:57:09.403Z,66.10
2019-03-31T03:59:40.583Z,67.15
2019-03-31T04:02:11.728Z,68.51
2019-03-31T04:04:42.813Z,68.99
2019-03-31T04:07:14.334Z,69.83
2019-03-31T04:09:45.347Z,70.27
2019-03-31T04:12:16.608Z,70.29
2019-03-31T04:14:48.854Z,69.83
2019-03-31T04:17:19.921Z,70.04
2019-03-31T04:19:51.375Z,69.53
2019-03-31T04:22:23.033Z,69.70
2019-03-31T04:24:54.094Z,69.95
2019-03-31T04:27:25.118Z,69.47
2019-03-31T04:29:56.138Z,70.18
2019-03-31T04:32:27.745Z,70.33
2019-03-31T04:34:59.539Z,70.58
2019-03-31T04:37:30.640Z,70.27
2019-03-31T04:40:01.668Z,70.78
2019-03-31T04:42:33.136Z,70.74
2019-03-31T04:45:04.279Z,71.04
2019-03-31T04:47:35.387Z,70.61
2019-03-31T04:50:06.919Z,71.41
2019-03-31T04:52:39.256Z,71.86
2019-03-31T04:55:10.621Z,71.77
2019-03-31T04:57:41.705Z,72.36
2019-03-31T05:00:12.979Z,72.54
2019-03-31T05:02:44.587Z,72.76
2019-03-31T05:05:17.765Z,72.23
2019-03-31T05:07:49.487Z,72.17
2019-03-31T05:10:20.865Z,72.31
2019-03-31T05:12:52.065Z,72.63
2019-03-31T05:15:23.330Z,73.29
2019-03-31T05:17:54.357Z,73.27
2019-03-31T05:20:26.275Z,73.17
2019-03-31T05:22:57.353Z,73.04
2019-03-31T05:25:28.452Z,73.16
2019-03-31T05:27:59.571Z,73.45
2019-03-31T05:30:30.725Z,73.77
2019-03-31T05:33:02.223Z,73.74
2019-03-31T05:35:34.235Z,73.53
2019-03-31T05:38:05.649Z,73.29
2019-03-31T05:40:37.081Z,72.77
2019-03-31T05:43:08.271Z,72.57
2019-03-31T05:45:39.487Z,72.79
2019-03-31T05:48:10.547Z,72.13
2019-03-31T05:50:41.612Z,71.40
2019-03-31T05:53:12.787Z,71.35
2019-03-31T05:55:45.117Z,70.91
2019-03-31T05:58:16.775Z,70.32
2019-03-31T06:00:50.012Z,70.16
2019-03-31T06:03:21.276Z,69.71
2019-03-31T06:05:52.923Z,69.11
2019-03-31T06:08:23.977Z,69.15
2019-03-31T06:10:55.167Z,69.46
2019-03-31T06:13:27.633Z,68.61
2019-03-31T06:15:58.833Z,68.48
2019-03-31T06:18:29.867Z,67.41
2019-03-31T06:21:02.075Z,67.29
2019-03-31T06:23:33.497Z,67.47
2019-03-31T06:26:04.634Z,67.21
2019-03-31T06:28:35.708Z,68.84
2019-03-31T06:31:06.923Z,68.60
2019-03-31T06:33:38.010Z,68.00
2019-03-31T06:36:09.109Z,67.47
2019-03-31T06:38:40.565Z,66.65
2019-03-31T06:41:12.105Z,66.37
2019-03-31T06:43:43.162Z,66.40
2019-03-31T06:46:14.456Z,65.87
2019-03-31T06:48:45.437Z,65.06
2019-03-31T06:51:17.253Z,63.31
2019-03-31T06:53:48.315Z,62.75
2019-03-31T06:56:19.848Z,61.61
2019-03-31T06:58:51.696Z,60.98
2019-03-31T07:01:22.845Z,59.53
2019-03-31T07:03:54.142Z,60.04
2019-03-31T07:06:25.433Z,59.71
2019-03-31T07:08:56.523Z,59.45
2019-03-31T07:11:27.601Z,59.19
2019-03-31T07:13:58.787Z,59.28
2019-03-31T07:16:29.991Z,58.65
2019-03-31T07:19:00.884Z,57.68
2019-03-31T07:21:34.024Z,58.65
2019-03-31T07:26:37.127Z,58.06
2019-03-31T07:29:08.259Z,59.77
2019-03-31T07:31:39.196Z,59.66
2019-03-31T07:34:10.367Z,58.86
2019-03-31T07:36:41.503Z,58.35
2019-03-31T07:39:12.682Z,58.41
2019-03-31T07:41:44.071Z,57.50
2019-03-31T07:44:18.009Z,57.36
2019-03-31T07:46:52.227Z,57.75
2019-03-31T07:49:24.763Z,57.13
2019-03-31T07:51:56.798Z,56.96
2019-03-31T07:54:28.190Z,55.57
2019-03-31T07:56:59.278Z,55.80
2019-03-31T07:59:33.093Z,57.13
2019-03-31T08:02:02.966Z,55.89
2019-03-31T08:04:34.148Z,55.81
2019-03-31T08:07:05.356Z,54.82
2019-03-31T08:09:37.735Z,55.29
2019-03-31T08:12:11.005Z,57.37
2019-03-31T08:14:42.200Z,57.76
2019-03-31T08:17:13.424Z,56.57
2019-03-31T08:19:44.568Z,57.04
2019-03-31T08:22:15.744Z,56.90
2019-03-31T08:24:46.852Z,55.26
2019-03-31T08:27:18.235Z,55.98
2019-03-31T08:29:59.842Z,55.68
2019-03-31T08:32:22.316Z,54.90
2019-03-31T08:34:53.800Z,54.09
2019-03-31T08:37:24.952Z,53.20
2019-03-31T08:39:56.064Z,52.04
2019-03-31T08:42:27.201Z,51.53
2019-03-31T08:44:58.484Z,49.37
2019-03-31T08:47:29.710Z,47.53
2019-03-31T08:50:02.350Z,45.01
2019-03-31T08:52:33.734Z,44.61
2019-03-31T08:55:05.217Z,44.54
2019-03-31T08:57:36.752Z,44.17
2019-03-31T09:00:14.727Z,44.75
2019-03-31T09:02:46.092Z,43.83
2019-03-31T09:05:17.319Z,44.38
2019-03-31T09:07:48.529Z,43.02
2019-03-31T09:10:20.079Z,43.17
2019-03-31T09:12:51.750Z,43.39
2019-03-31T09:15:22.885Z,43.22
2019-03-31T09:17:54.607Z,42.69
2019-03-31T09:20:25.830Z,41.21
2019-03-31T09:22:57.929Z,42.50
2019-03-31T09:25:29.083Z,41.74
2019-03-31T09:28:00.269Z,42.24
2019-03-31T09:30:32.039Z,40.18
2019-03-31T09:33:04.753Z,40.51
2019-03-31T09:35:35.849Z,38.78
2019-03-31T09:38:06.960Z,38.09
2019-03-31T09:40:38.709Z,38.22
2019-03-31T09:43:10.043Z,37.92
2019-03-31T09:45:41.204Z,39.66
2019-03-31T09:48:12.309Z,39.27
2019-03-31T09:50:43.306Z,39.74
2019-03-31T09:53:14.588Z,39.77
2019-03-31T09:55:45.771Z,41.00
2019-03-31T09:58:16.980Z,37.83
2019-03-31T10:00:51.133Z,39.78
2019-03-31T10:03:22.813Z,39.90
2019-03-31T10:05:54.549Z,37.87
2019-03-31T10:08:25.997Z,38.68
2019-03-31T10:10:57.202Z,38.24
2019-03-31T10:13:28.379Z,38.86
2019-03-31T10:16:00.135Z,40.78
2019-03-31T10:18:32.981Z,43.22
2019-03-31T10:21:04.887Z,43.42
2019-03-31T10:23:35.955Z,44.38
2019-03-31T10:26:07.261Z,44.52
2019-03-31T10:28:38.382Z,44.23
2019-03-31T10:31:10.753Z,42.21
2019-03-31T10:33:41.965Z,42.84
2019-03-31T10:36:15.347Z,42.42
2019-03-31T10:38:47.292Z,42.14
2019-03-31T10:41:18.440Z,42.07
2019-03-31T10:43:49.629Z,41.79
2019-03-31T10:46:20.857Z,42.77
2019-03-31T10:48:52.085Z,42.82
2019-03-31T10:51:23.314Z,41.01
2019-03-31T10:53:54.419Z,40.30
2019-03-31T10:56:25.604Z,41.35
2019-03-31T10:58:57.465Z,41.60
2019-03-31T11:01:28.593Z,41.66
2019-03-31T11:03:59.709Z,41.36
2019-03-31T11:06:30.854Z,41.66
2019-03-31T11:09:02.031Z,41.98
2019-03-31T11:11:33.217Z,43.78
2019-03-31T11:14:04.879Z,42.06
2019-03-31T11:16:36.049Z,41.80
2019-03-31T11:19:07.168Z,41.22
2019-03-31T11:21:46.328Z,41.27
2019-03-31T11:24:17.275Z,41.78
2019-03-31T11:26:48.469Z,40.02
2019-03-31T11:29:19.633Z,41.25
2019-03-31T11:31:50.909Z,40.02
2019-03-31T11:34:22.136Z,40.16
2019-03-31T11:36:53.299Z,39.47
2019-03-31T11:39:24.405Z,38.58
2019-03-31T11:41:55.527Z,37.52
2019-03-31T11:44:27.859Z,40.75
2019-03-31T11:46:59.166Z,39.26
2019-03-31T11:49:30.261Z,40.03
2019-03-31T11:52:01.385Z,40.61
2019-03-31T11:54:32.579Z,38.10
2019-03-31T11:57:03.664Z,38.13
2019-03-31T11:59:34.843Z,37.54
2019-03-31T12:02:06.108Z,36.53
2019-03-31T12:04:37.277Z,38.12
2019-03-31T12:07:08.463Z,37.63
2019-03-31T12:09:39.534Z,35.84
2019-03-31T12:12:10.940Z,37.69
2019-03-31T12:14:42.147Z,38.30
2019-03-31T12:17:13.445Z,39.71
2019-03-31T12:19:44.575Z,40.42
2019-03-31T12:22:15.715Z,40.87
2019-03-31T12:24:46.858Z,40.53
2019-03-31T12:27:18.031Z,40.20
2019-03-31T12:29:49.178Z,40.39
2019-03-31T12:32:20.251Z,40.74
2019-03-31T12:34:51.454Z,41.04
2019-03-31T12:37:22.594Z,40.28
2019-03-31T12:39:53.614Z,40.81
2019-03-31T12:42:24.855Z,40.03
2019-03-31T12:44:55.942Z,38.74
2019-03-31T12:47:27.148Z,39.21
2019-03-31T12:49:58.781Z,40.05
2019-03-31T12:52:29.931Z,38.87
2019-03-31T12:55:01.056Z,36.92
2019-03-31T12:57:32.241Z,37.64
2019-03-31T13:00:03.687Z,39.28
2019-03-31T13:02:34.729Z,37.57
2019-03-31T13:05:06.034Z,37.54
2019-03-31T13:07:37.143Z,37.96
2019-03-31T13:10:08.342Z,37.89
2019-03-31T13:12:39.455Z,38.48
2019-03-31T13:15:10.838Z,38.59
2019-03-31T13:17:42.116Z,38.14
2019-03-31T13:20:13.704Z,38.06
2019-03-31T13:22:46.078Z,38.54
2019-03-31T13:25:17.518Z,38.89
2019-03-31T13:27:48.577Z,39.29
2019-03-31T13:30:21.961Z,37.55
2019-03-31T13:32:52.908Z,36.78
2019-03-31T13:35:23.968Z,36.56
2019-03-31T13:37:55.135Z,36.53
2019-03-31T13:40:26.269Z,36.22
2019-03-31T13:42:57.384Z,37.76
2019-03-31T13:45:28.875Z,36.98
2019-03-31T13:48:00.083Z,36.62
2019-03-31T13:50:31.216Z,38.00
2019-03-31T13:53:02.398Z,35.53
2019-03-31T13:55:33.590Z,35.83
2019-03-31T13:58:06.139Z,34.17
2019-03-31T14:00:43.139Z,33.30
2019-03-31T14:03:14.566Z,36.65
2019-03-31T14:05:45.731Z,36.06
2019-03-31T14:08:25.459Z,36.48
2019-03-31T14:10:50.286Z,35.63
2019-03-31T14:13:21.349Z,35.91
2019-03-31T14:15:52.534Z,37.41
2019-03-31T14:18:24.038Z,37.43
2019-03-31T14:20:55.403Z,37.13
2019-03-31T14:23:26.534Z,38.47
2019-03-31T14:25:57.837Z,39.75
2019-03-31T14:28:29.006Z,39.41
2019-03-31T14:31:00.569Z,38.65
2019-03-31T14:33:31.723Z,39.86
2019-03-31T14:36:02.941Z,42.07
2019-03-31T14:38:40.527Z,43.81
2019-03-31T14:41:07.672Z,44.61
2019-03-31T14:43:38.781Z,45.32
2019-03-31T14:46:10.644Z,45.18
2019-03-31T14:48:41.832Z,46.07
2019-03-31T14:51:13.286Z,46.69
2019-03-31T14:53:44.518Z,46.44
2019-03-31T14:56:15.745Z,47.91
2019-03-31T14:58:46.867Z,48.23
2019-03-31T15:01:21.154Z,49.38
2019-03-31T15:03:50.851Z,49.57
2019-03-31T15:06:22.552Z,49.62
2019-03-31T15:08:54.807Z,49.88
2019-03-31T15:11:26.085Z,49.84
2019-03-31T15:13:57.283Z,49.90
2019-03-31T15:16:28.475Z,50.91
2019-03-31T15:18:59.774Z,50.60
2019-03-31T15:21:31.655Z,51.48
2019-03-31T15:24:02.986Z,51.96
2019-03-31T15:26:34.235Z,52.00
2019-03-31T15:29:05.711Z,51.97
2019-03-31T15:31:36.940Z,51.78
2019-03-31T15:34:08.075Z,51.66
2019-03-31T15:36:39.499Z,52.04
2019-03-31T15:39:11.079Z,53.17
2019-03-31T15:41:42.745Z,53.09
2019-03-31T15:44:16.491Z,52.29
2019-03-31T15:46:46.512Z,53.02
2019-03-31T15:49:18.942Z,52.76
2019-03-31T15:51:50.429Z,52.51
2019-03-31T15:54:21.657Z,53.25
2019-03-31T15:56:55.243Z,52.80
2019-03-31T15:59:26.914Z,53.89
2019-03-31T16:01:58.086Z,53.28
2019-03-31T16:04:29.204Z,53.88
2019-03-31T16:07:00.419Z,54.09
2019-03-31T16:09:30.749Z,54.05
2019-03-31T16:12:01.086Z,54.66
2019-03-31T16:14:31.585Z,54.23
2019-03-31T16:17:02.426Z,54.13
2019-03-31T16:19:33.066Z,54.27
2019-03-31T16:22:03.311Z,54.52
2019-03-31T16:24:42.283Z,54.10
2019-03-31T16:27:12.890Z,53.97
2019-03-31T16:29:43.152Z,54.35
2019-03-31T16:32:13.821Z,53.95
2019-03-31T16:34:44.004Z,54.15
2019-03-31T16:37:14.310Z,54.70
2019-03-31T16:39:44.612Z,55.06
2019-03-31T16:42:15.195Z,55.59
2019-03-31T16:44:57.447Z,55.67
2019-03-31T16:47:18.299Z,55.33
2019-03-31T16:49:48.640Z,55.61
2019-03-31T16:52:20.064Z,55.25
2019-03-31T16:54:50.914Z,54.53
2019-03-31T16:57:21.442Z,54.53
2019-03-31T16:59:51.727Z,54.18
2019-03-31T17:02:22.055Z,54.39
2019-03-31T17:04:52.356Z,54.62
2019-03-31T17:07:23.104Z,54.27
2019-03-31T17:09:53.528Z,54.34
2019-03-31T17:12:23.870Z,54.37
2019-03-31T17:14:54.723Z,54.76
2019-03-31T17:17:26.033Z,54.60
2019-03-31T17:19:56.412Z,55.34
2019-03-31T17:22:26.745Z,55.54
2019-03-31T17:24:57.290Z,55.31
2019-03-31T17:27:27.738Z,56.30
2019-03-31T17:29:58.054Z,55.86
2019-03-31T17:32:28.541Z,56.16
2019-03-31T17:34:59.120Z,55.78
2019-03-31T17:37:29.579Z,55.76
2019-03-31T17:40:06.544Z,56.19
2019-03-31T17:42:32.059Z,56.41
2019-03-31T17:45:02.225Z,56.44
2019-03-31T17:47:33.208Z,56.71
2019-03-31T17:50:03.710Z,57.39
2019-03-31T17:52:34.011Z,57.53
2019-03-31T17:55:06.076Z,58.11
2019-03-31T17:57:36.478Z,57.99
2019-03-31T18:00:09.187Z,58.20
2019-03-31T18:02:39.507Z,58.02
2019-03-31T18:05:10.302Z,57.98
2019-03-31T18:07:40.570Z,58.06
2019-03-31T18:10:20.660Z,58.39
2019-03-31T18:12:43.201Z,58.52
2019-03-31T18:15:14.073Z,58.07
2019-03-31T18:17:44.455Z,57.82
2019-03-31T18:20:14.822Z,58.13
2019-03-31T18:22:45.115Z,57.13
2019-03-31T18:25:16.715Z,57.54
2019-03-31T18:27:47.047Z,58.62
2019-03-31T18:30:17.932Z,58.53
2019-03-31T18:32:48.619Z,58.28
2019-03-31T18:35:19.030Z,58.29
2019-03-31T18:37:49.632Z,58.29
2019-03-31T18:40:34.330Z,58.70
2019-03-31T18:42:53.026Z,58.06
2019-03-31T18:45:23.340Z,58.77
2019-03-31T18:47:53.637Z,58.63
2019-03-31T18:50:23.931Z,58.60
2019-03-31T18:52:54.636Z,58.79
2019-03-31T18:55:51.901Z,58.88
2019-03-31T18:58:43.989Z,59.36
2019-03-31T19:01:26.853Z,59.51
2019-03-31T19:04:14.851Z,59.16
2019-03-31T19:07:03.934Z,59.62
2019-03-31T19:09:51.829Z,59.25
2019-03-31T19:12:39.877Z,59.20
2019-03-31T19:15:29.306Z,59.11
2019-03-31T19:18:30.873Z,59.18
2019-03-31T19:21:22.332Z,59.23
2019-03-31T19:24:05.495Z,59.01
2019-03-31T19:26:53.340Z,59.46
2019-03-31T19:30:00.759Z,59.77
2019-03-31T19:32:47.595Z,60.71
2019-03-31T19:35:33.328Z,60.01
2019-03-31T19:38:14.268Z,59.78
2019-03-31T19:41:03.362Z,59.23
2019-03-31T19:43:52.494Z,60.00
2019-03-31T19:46:42.509Z,59.63
2019-03-31T19:49:27.092Z,60.11
2019-03-31T19:52:31.072Z,60.46
2019-03-31T19:55:23.451Z,60.22
2019-03-31T19:58:04.553Z,60.74
2019-03-31T20:00:43.697Z,60.33
2019-03-31T20:03:29.788Z,59.90
2019-03-31T20:06:17.732Z,59.82
2019-03-31T20:08:53.887Z,59.86
2019-03-31T20:11:49.547Z,60.20
2019-03-31T20:14:42.830Z,60.74
2019-03-31T20:17:32.071Z,60.93
2019-03-31T20:20:20.640Z,60.41
2019-03-31T20:23:12.875Z,60.91
2019-03-31T20:26:04.854Z,60.94
2019-03-31T20:28:48.595Z,61.05
2019-03-31T20:31:37.847Z,60.99
2019-03-31T20:34:29.849Z,61.56
2019-03-31T20:37:17.853Z,61.29
2019-03-31T20:40:10.230Z,60.96
2019-03-31T20:43:02.495Z,61.36
2019-03-31T20:45:33.933Z,61.74
2019-03-31T20:48:04.272Z,61.41
2019-03-31T20:50:34.688Z,61.58
2019-03-31T20:53:05.022Z,61.63
2019-03-31T20:55:35.424Z,61.90
2019-03-31T20:58:05.813Z,61.99
2019-03-31T21:00:36.438Z,61.81
2019-03-31T21:03:07.429Z,61.62
2019-03-31T21:05:38.106Z,61.63
2019-03-31T21:08:08.479Z,61.80
2019-03-31T21:10:38.704Z,62.04
2019-03-31T21:13:09.091Z,62.43
2019-03-31T21:15:39.463Z,62.00
2019-03-31T21:18:09.863Z,62.42
2019-03-31T21:20:40.574Z,61.78
2019-03-31T21:23:10.869Z,62.55
2019-03-31T21:25:41.188Z,62.87
2019-03-31T21:28:11.576Z,62.28
2019-03-31T21:30:41.884Z,62.44
2019-03-31T21:33:12.567Z,63.38
2019-03-31T21:35:43.148Z,63.44
2019-03-31T21:38:13.441Z,63.24
2019-03-31T21:40:43.723Z,63.81
2019-03-31T21:43:14.048Z,64.14
2019-03-31T21:45:45.454Z,64.30
2019-03-31T21:48:15.779Z,64.68
2019-03-31T21:50:46.225Z,64.80
2019-03-31T21:53:16.530Z,64.80
2019-03-31T21:55:46.994Z,64.99
2019-03-31T21:58:17.369Z,65.08
2019-03-31T22:00:57.451Z,65.50
2019-03-31T22:03:28.298Z,65.75
2019-03-31T22:05:58.734Z,66.23
2019-03-31T22:08:29.040Z,66.19
2019-03-31T22:10:59.369Z,66.33
2019-03-31T22:13:29.748Z,66.34
2019-03-31T22:16:00.019Z,65.97
2019-03-31T22:18:30.404Z,66.18
2019-03-31T22:21:00.719Z,66.40
2019-03-31T22:23:31.049Z,66.26
2019-03-31T22:26:01.365Z,66.47
2019-03-31T22:28:32.394Z,66.76
2019-03-31T22:31:02.912Z,67.03
2019-03-31T22:33:33.224Z,67.59
2019-03-31T22:36:21.979Z,67.73
2019-03-31T22:38:55.015Z,67.72
2019-03-31T22:41:25.530Z,68.04
2019-03-31T22:43:56.108Z,67.74
2019-03-31T22:46:26.479Z,67.63
2019-03-31T22:48:57.170Z,67.82
2019-03-31T22:51:27.541Z,68.29
2019-03-31T22:53:57.880Z,68.64
2019-03-31T22:56:28.863Z,68.81
2019-03-31T22:58:59.339Z,68.96
2019-03-31T23:01:29.713Z,69.20
2019-03-31T23:04:00.037Z,69.42
2019-03-31T23:06:30.438Z,69.78
2019-03-31T23:09:00.771Z,70.00
2019-03-31T23:11:31.166Z,70.34
2019-03-31T23:14:01.484Z,70.03
2019-03-31T23:16:32.171Z,70.22
2019-03-31T23:19:02.481Z,70.20
2019-03-31T23:21:32.821Z,70.11
2019-03-31T23:24:03.151Z,69.91
2019-03-31T23:26:33.832Z,70.08
2019-03-31T23:29:04.145Z,70.00
2019-03-31T23:31:34.679Z,70.01
2019-03-31T23:34:05.196Z,70.23
2019-03-31T23:36:35.596Z,70.41
2019-03-31T23:39:08.209Z,70.57
2019-03-31T23:41:38.668Z,70.60
2019-03-31T23:44:08.938Z,70.57
2019-03-31T23:46:39.488Z,70.53
2019-03-31T23:49:09.798Z,70.51
2019-03-31T23:51:40.140Z,70.75
2019-03-31T23:54:10.468Z,70.63
2019-03-31T23:56:41.417Z,71.21
2019-03-31T23:59:11.735Z,71.42
